logo
Search for airport 
image banner adimage banner adimage banner ad
image banner ad

YYRN - Yamarna

Located in Yamarna Gold Mine, Australia

ICAO - YYRN, IATA -

Data provided by Airmate  

General information

Coordinates: S28°9'18" E123°40'30"
Elevation is 1449 feet MSL.
 
View others Airports in Western Australia

Operational data

Special qualification required
Current time UTC:
Current local time:
Weather at : - ( 0 km )
METAR: KANR 130225Z AUTO 18012KT 10SM FEW005 BKN025 BKN032 29/24 A3023 RMK A01
View NOTAMs / SUP AIP / TFR affecting this airport [VIEW]
Communications frequencies: [VIEW]

Runways:

RWY identifierQFULength (ft)Width (ft)SurfaceLDA (ft)
12485975UNK
30485975UNK

Airport contact information

Address: Yamarna Gold Mine Australia

Satellite view of YYRN